createdAt,value
2018-06-24T00:01:58.624Z,5.65
2018-06-24T00:04:26.774Z,5.18
2018-06-24T00:06:54.883Z,4.65
2018-06-24T00:09:23.771Z,4.95
2018-06-24T00:11:52.643Z,5.07
2018-06-24T00:14:21.769Z,5.18
2018-06-24T00:16:51.118Z,5.05
2018-06-24T00:19:19.225Z,5.75
2018-06-24T00:21:48.103Z,4.97
2018-06-24T00:24:16.270Z,5.05
2018-06-24T00:26:44.854Z,5.43
2018-06-24T00:29:12.953Z,5.43
2018-06-24T00:31:41.841Z,4.97
2018-06-24T00:34:12.682Z,4.75
2018-06-24T00:36:40.787Z,5.68
2018-06-24T00:39:08.904Z,4.87
2018-06-24T00:41:37.021Z,4.87
2018-06-24T00:44:05.154Z,4.68
2018-06-24T00:46:33.267Z,4.00
2018-06-24T00:49:01.391Z,4.90
2018-06-24T00:51:29.512Z,5.40
2018-06-24T00:53:58.688Z,5.00
2018-06-24T00:56:26.808Z,5.10
2018-06-24T00:58:54.931Z,4.97
2018-06-24T01:01:24.296Z,5.12
2018-06-24T01:03:52.470Z,6.07
2018-06-24T01:06:21.377Z,5.65
2018-06-24T01:08:49.474Z,4.87
2018-06-24T01:11:17.599Z,5.00
2018-06-24T01:13:46.707Z,4.40
2018-06-24T01:16:14.822Z,5.72
2018-06-24T01:18:42.950Z,5.80
2018-06-24T01:21:11.058Z,5.03
2018-06-24T01:23:40.079Z,4.93
2018-06-24T01:26:08.202Z,5.43
2018-06-24T01:28:36.305Z,5.50
2018-06-24T01:31:04.422Z,5.72
2018-06-24T01:33:32.527Z,5.90
2018-06-24T01:36:00.640Z,5.50
2018-06-24T01:38:28.759Z,5.37
2018-06-24T01:40:56.862Z,6.18
2018-06-24T01:43:25.750Z,5.55
2018-06-24T01:45:54.647Z,6.47
2018-06-24T01:48:22.767Z,6.00
2018-06-24T01:50:50.882Z,5.03
2018-06-24T01:53:19.863Z,5.87
2018-06-24T01:55:47.977Z,5.53
2018-06-24T01:58:16.089Z,5.82
2018-06-24T02:00:44.225Z,5.93
2018-06-24T02:03:12.335Z,5.97
2018-06-24T02:05:41.630Z,6.43
2018-06-24T02:08:09.736Z,5.15
2018-06-24T02:10:38.610Z,5.50
2018-06-24T02:13:06.721Z,4.72
2018-06-24T02:15:34.841Z,5.72
2018-06-24T02:18:03.009Z,5.00
2018-06-24T02:20:31.123Z,5.97
2018-06-24T02:23:00.000Z,6.18
2018-06-24T02:25:28.185Z,5.22
2018-06-24T02:27:57.090Z,5.70
2018-06-24T02:30:25.959Z,5.80
2018-06-24T02:32:54.074Z,5.78
2018-06-24T02:35:22.286Z,4.82
2018-06-24T02:37:50.401Z,5.37
2018-06-24T02:40:18.514Z,6.37
2018-06-24T02:42:46.657Z,7.12
2018-06-24T02:45:14.818Z,5.47
2018-06-24T02:47:42.954Z,5.25
2018-06-24T02:50:11.059Z,4.40
2018-06-24T02:52:39.989Z,4.68
2018-06-24T02:55:08.991Z,5.00
2018-06-24T02:57:37.104Z,6.00
2018-06-24T03:00:06.008Z,4.60
2018-06-24T03:02:34.106Z,5.35
2018-06-24T03:05:02.301Z,4.45
2018-06-24T03:07:30.437Z,4.43
2018-06-24T03:09:58.557Z,4.87
2018-06-24T03:12:26.680Z,4.57
2018-06-24T03:14:56.563Z,5.20
2018-06-24T03:17:24.680Z,5.15
2018-06-24T03:19:52.807Z,5.43
2018-06-24T03:22:20.945Z,5.20
2018-06-24T03:24:49.047Z,4.78
2018-06-24T03:27:17.184Z,5.37
2018-06-24T03:29:45.289Z,5.43
2018-06-24T03:32:13.907Z,5.68
2018-06-24T03:34:42.635Z,4.57
2018-06-24T03:37:10.752Z,5.57
2018-06-24T03:39:38.857Z,5.15
2018-06-24T03:42:06.967Z,5.60
2018-06-24T03:44:35.126Z,4.93
2018-06-24T03:47:03.243Z,5.65
2018-06-24T03:49:31.344Z,5.75
2018-06-24T03:51:59.489Z,4.75
2018-06-24T03:54:27.600Z,5.15
2018-06-24T03:56:55.709Z,5.15
2018-06-24T03:59:23.818Z,5.25
2018-06-24T04:01:54.964Z,5.20
2018-06-24T04:04:24.012Z,4.37
2018-06-24T04:06:52.190Z,4.50
2018-06-24T04:09:20.306Z,5.53
2018-06-24T04:11:49.174Z,4.50
2018-06-24T04:14:17.293Z,4.97
2018-06-24T04:16:46.296Z,5.07
2018-06-24T04:19:14.480Z,5.37
2018-06-24T04:21:42.603Z,5.70
2018-06-24T04:24:11.648Z,4.40
2018-06-24T04:26:39.766Z,5.28
2018-06-24T04:29:07.879Z,5.93
2018-06-24T04:31:36.001Z,5.60
2018-06-24T04:34:04.114Z,4.90
2018-06-24T04:36:32.222Z,4.55
2018-06-24T04:39:00.599Z,4.90
2018-06-24T04:41:28.714Z,5.50
2018-06-24T04:43:56.822Z,5.95
2018-06-24T04:46:24.949Z,5.65
2018-06-24T04:48:53.061Z,5.47
2018-06-24T04:51:21.165Z,5.62
2018-06-24T04:53:49.276Z,5.45
2018-06-24T04:56:18.150Z,6.70
2018-06-24T04:58:46.254Z,5.70
2018-06-24T05:01:16.083Z,5.18
2018-06-24T05:03:44.190Z,5.80
2018-06-24T05:06:12.329Z,5.55
2018-06-24T05:08:40.423Z,5.37
2018-06-24T05:11:08.613Z,5.18
2018-06-24T05:13:36.929Z,6.03
2018-06-24T05:16:05.823Z,5.47
2018-06-24T05:18:34.714Z,5.50
2018-06-24T05:21:03.641Z,5.40
2018-06-24T05:23:31.780Z,6.82
2018-06-24T05:26:00.654Z,5.95
2018-06-24T05:28:28.768Z,5.72
2018-06-24T05:30:57.623Z,5.97
2018-06-24T05:33:26.504Z,5.95
2018-06-24T05:35:54.610Z,5.97
2018-06-24T05:38:22.724Z,6.18
2018-06-24T05:40:50.857Z,6.20
2018-06-24T05:43:19.458Z,5.55
2018-06-24T05:45:47.639Z,5.70
2018-06-24T05:48:15.750Z,6.30
2018-06-24T05:50:44.791Z,7.15
2018-06-24T05:53:12.916Z,6.28
2018-06-24T05:55:41.058Z,6.22
2018-06-24T05:58:09.185Z,6.43
2018-06-24T06:00:38.059Z,6.25
2018-06-24T06:03:06.240Z,8.25
2018-06-24T06:05:35.225Z,6.68
2018-06-24T06:08:03.365Z,6.47
2018-06-24T06:10:31.575Z,6.57
2018-06-24T06:13:00.355Z,6.97
2018-06-24T06:15:28.554Z,7.20
2018-06-24T06:17:57.431Z,7.47
2018-06-24T06:20:27.097Z,7.35
2018-06-24T06:22:55.208Z,6.07
2018-06-24T06:25:23.336Z,5.28
2018-06-24T06:27:51.451Z,6.80
2018-06-24T06:30:19.621Z,5.45
2018-06-24T06:32:47.681Z,6.78
2018-06-24T06:35:17.004Z,6.20
2018-06-24T06:37:45.124Z,7.35
2018-06-24T06:40:13.245Z,5.37
2018-06-24T06:42:41.358Z,6.30
2018-06-24T06:45:09.634Z,5.95
2018-06-24T06:47:37.601Z,6.45
2018-06-24T06:50:05.701Z,6.05
2018-06-24T06:52:33.833Z,7.18
2018-06-24T06:55:02.793Z,5.87
2018-06-24T06:57:30.910Z,6.07
2018-06-24T06:59:59.904Z,6.50
2018-06-24T07:02:28.442Z,5.78
2018-06-24T07:04:56.589Z,7.20
2018-06-24T07:07:24.722Z,6.37
2018-06-24T07:09:52.852Z,5.37
2018-06-24T07:12:20.962Z,5.45
2018-06-24T07:14:49.846Z,5.90
2018-06-24T07:17:19.690Z,5.97
2018-06-24T07:19:48.574Z,5.00
2018-06-24T07:22:16.683Z,5.50
2018-06-24T07:24:45.810Z,5.80
2018-06-24T07:27:13.921Z,6.43
2018-06-24T07:29:42.935Z,6.50
2018-06-24T07:32:11.379Z,6.75
2018-06-24T07:34:39.508Z,6.25
2018-06-24T07:37:07.690Z,6.37
2018-06-24T07:39:35.845Z,7.18
2018-06-24T07:42:04.944Z,5.87
2018-06-24T07:44:33.071Z,6.60
2018-06-24T07:47:01.953Z,6.57
2018-06-24T07:49:31.449Z,6.50
2018-06-24T07:51:59.588Z,6.78
2018-06-24T07:54:27.773Z,6.70
2018-06-24T07:56:55.913Z,7.45
2018-06-24T07:59:24.098Z,5.40
2018-06-24T08:01:52.240Z,6.95
2018-06-24T08:04:20.506Z,6.45
2018-06-24T08:06:49.382Z,5.93
2018-06-24T08:09:19.184Z,6.25
2018-06-24T08:11:47.504Z,6.20
2018-06-24T08:14:15.643Z,5.53
2018-06-24T08:16:43.771Z,6.57
2018-06-24T08:19:11.886Z,5.00
2018-06-24T08:21:41.337Z,5.78
2018-06-24T08:24:09.598Z,6.30
2018-06-24T08:26:37.760Z,5.78
2018-06-24T08:29:06.645Z,5.57
2018-06-24T08:31:35.603Z,5.20
2018-06-24T08:34:03.690Z,5.80
2018-06-24T08:36:31.827Z,6.55
2018-06-24T08:38:59.953Z,6.05
2018-06-24T08:41:28.853Z,6.80
2018-06-24T08:43:57.827Z,7.25
2018-06-24T08:46:26.736Z,5.97
2018-06-24T08:48:55.629Z,6.45
2018-06-24T08:51:24.717Z,6.18
2018-06-24T08:53:53.597Z,6.03
2018-06-24T08:56:21.701Z,5.72
2018-06-24T08:58:49.816Z,5.18
2018-06-24T09:01:17.956Z,6.05
2018-06-24T09:03:47.095Z,6.20
2018-06-24T09:06:16.482Z,6.25
2018-06-24T09:08:44.595Z,5.85
2018-06-24T09:11:13.753Z,5.15
2018-06-24T09:13:42.926Z,6.60
2018-06-24T09:16:12.800Z,5.72
2018-06-24T09:18:41.765Z,5.45
2018-06-24T09:21:09.962Z,5.47
2018-06-24T09:23:38.848Z,5.77
2018-06-24T09:26:06.991Z,5.47
2018-06-24T09:28:36.118Z,6.65
2018-06-24T09:31:04.237Z,6.30
2018-06-24T09:33:32.356Z,5.70
2018-06-24T09:36:00.630Z,4.80
2018-06-24T09:38:28.754Z,4.50
2018-06-24T09:40:56.921Z,5.30
2018-06-24T09:43:24.978Z,5.30
2018-06-24T09:45:53.894Z,5.90
2018-06-24T09:48:22.023Z,5.70
2018-06-24T09:50:50.153Z,5.13
2018-06-24T09:53:18.276Z,5.07
2018-06-24T09:55:47.153Z,4.97
2018-06-24T09:58:15.295Z,5.23
2018-06-24T10:00:44.176Z,6.07
2018-06-24T10:03:13.357Z,5.37
2018-06-24T10:05:42.210Z,4.77
2018-06-24T10:08:10.353Z,5.60
2018-06-24T10:10:38.502Z,5.87
2018-06-24T10:13:06.627Z,7.00
2018-06-24T10:15:34.821Z,5.10
2018-06-24T10:18:02.973Z,5.60
2018-06-24T10:20:31.341Z,5.47
2018-06-24T10:22:59.434Z,6.23
2018-06-24T10:25:28.549Z,5.00
2018-06-24T10:27:57.417Z,4.93
2018-06-24T10:30:25.529Z,6.10
2018-06-24T10:32:54.602Z,4.63
2018-06-24T10:35:23.491Z,7.20
2018-06-24T10:37:52.369Z,5.63
2018-06-24T10:40:20.895Z,5.80
2018-06-24T10:42:49.011Z,5.90
2018-06-24T10:45:18.091Z,5.83
2018-06-24T10:47:47.741Z,6.07
2018-06-24T10:50:16.629Z,5.33
2018-06-24T10:52:47.339Z,5.33
2018-06-24T10:55:15.465Z,5.60
2018-06-24T10:57:43.607Z,5.80
2018-06-24T11:00:14.734Z,5.07
2018-06-24T11:02:42.852Z,5.60
2018-06-24T11:05:10.971Z,5.63
2018-06-24T11:07:39.090Z,5.93
2018-06-24T11:10:07.225Z,4.87
2018-06-24T11:12:37.188Z,4.50
2018-06-24T11:15:07.080Z,5.87
2018-06-24T11:17:35.210Z,5.17
2018-06-24T11:20:03.315Z,6.33
2018-06-24T11:22:32.213Z,5.07
2018-06-24T11:25:01.163Z,4.03
2018-06-24T11:27:29.291Z,4.80
2018-06-24T11:29:58.297Z,4.13
2018-06-24T11:32:28.309Z,4.80
2018-06-24T11:34:56.472Z,4.72
2018-06-24T11:37:29.645Z,4.00
2018-06-24T11:39:57.771Z,4.40
2018-06-24T11:42:26.818Z,3.77
2018-06-24T11:44:56.672Z,3.90
2018-06-24T11:47:26.156Z,4.30
2018-06-24T11:49:57.599Z,5.00
2018-06-24T11:52:26.541Z,4.53
2018-06-24T11:54:54.904Z,4.10
2018-06-24T11:57:23.308Z,3.90
2018-06-24T11:59:51.491Z,4.13
2018-06-24T12:02:20.877Z,3.67
2018-06-24T12:04:48.998Z,3.80
2018-06-24T12:07:17.420Z,3.50
2018-06-24T12:09:45.532Z,3.00
2018-06-24T12:12:14.339Z,3.60
2018-06-24T12:14:43.333Z,3.70
2018-06-24T12:17:13.281Z,3.20
2018-06-24T12:19:41.417Z,3.47
2018-06-24T12:22:09.525Z,2.83
2018-06-24T12:24:37.645Z,3.33
2018-06-24T12:27:05.770Z,3.47
2018-06-24T12:29:33.943Z,2.70
2018-06-24T12:32:02.098Z,3.33
2018-06-24T12:34:30.356Z,3.10
2018-06-24T12:36:58.512Z,2.80
2018-06-24T12:39:26.656Z,3.43
2018-06-24T12:41:54.786Z,2.73
2018-06-24T12:44:23.038Z,3.07
2018-06-24T12:46:52.027Z,3.17
2018-06-24T12:49:20.128Z,3.17
2018-06-24T12:51:49.432Z,3.22
2018-06-24T12:54:18.367Z,2.50
2018-06-24T12:56:49.885Z,2.83
2018-06-24T12:59:18.190Z,2.93
2018-06-24T13:01:46.160Z,2.80
2018-06-24T13:04:18.883Z,3.27
2018-06-24T13:06:47.778Z,2.90
2018-06-24T13:09:17.700Z,2.40
2018-06-24T13:11:47.367Z,2.40
2018-06-24T13:14:16.578Z,2.10
2018-06-24T13:16:44.600Z,1.97
2018-06-24T13:19:12.720Z,2.50
2018-06-24T13:21:40.879Z,2.77
2018-06-24T13:24:09.056Z,2.30
2018-06-24T13:26:37.466Z,2.03
2018-06-24T13:29:05.530Z,2.70
2018-06-24T13:31:33.650Z,2.63
2018-06-24T13:34:01.865Z,2.70
2018-06-24T13:36:29.992Z,2.23
2018-06-24T13:38:58.861Z,3.27
2018-06-24T13:41:27.732Z,2.17
2018-06-24T13:43:55.839Z,2.67
2018-06-24T13:46:25.148Z,2.37
2018-06-24T13:48:53.494Z,2.20
2018-06-24T13:51:22.372Z,2.73
2018-06-24T13:53:50.573Z,2.10
2018-06-24T13:56:19.447Z,2.90
2018-06-24T13:58:49.279Z,2.40
2018-06-24T14:01:18.764Z,2.53
2018-06-24T14:03:46.980Z,1.80
2018-06-24T14:06:16.610Z,2.70
2018-06-24T14:08:44.734Z,1.70
2018-06-24T14:11:12.859Z,1.37
2018-06-24T14:13:41.063Z,2.17
2018-06-24T14:16:10.083Z,1.93
2018-06-24T14:18:38.979Z,1.63
2018-06-24T14:21:07.855Z,1.60
2018-06-24T14:23:38.602Z,1.43
2018-06-24T14:26:08.048Z,1.90
2018-06-24T14:28:36.179Z,1.90
2018-06-24T14:31:04.325Z,1.53
2018-06-24T14:33:32.472Z,1.73
2018-06-24T14:36:00.598Z,1.87
2018-06-24T14:38:28.720Z,1.10
2018-06-24T14:40:56.830Z,1.17
2018-06-24T14:43:24.970Z,1.20
2018-06-24T14:45:53.105Z,1.60
2018-06-24T14:48:22.326Z,1.67
2018-06-24T14:50:50.453Z,1.63
2018-06-24T14:53:19.337Z,1.30
2018-06-24T14:55:48.247Z,1.40
2018-06-24T14:58:16.391Z,1.40
2018-06-24T15:00:45.634Z,1.67
2018-06-24T15:03:13.754Z,1.57
2018-06-24T15:05:42.098Z,1.33
2018-06-24T15:08:10.217Z,1.47
2018-06-24T15:10:39.237Z,1.23
2018-06-24T15:13:07.355Z,1.30
2018-06-24T15:15:35.484Z,1.97
2018-06-24T15:18:03.595Z,1.90
2018-06-24T15:20:31.713Z,1.63
2018-06-24T15:22:59.835Z,1.93
2018-06-24T15:25:29.072Z,1.60
2018-06-24T15:27:57.193Z,1.50
2018-06-24T15:30:26.165Z,2.17
2018-06-24T15:32:54.270Z,1.93
2018-06-24T15:35:23.626Z,1.70
2018-06-24T15:37:52.024Z,2.17
2018-06-24T15:40:20.416Z,1.73
2018-06-24T15:42:48.621Z,2.13
2018-06-24T15:45:18.475Z,1.83
2018-06-24T15:47:46.583Z,1.67
2018-06-24T15:50:15.832Z,1.67
2018-06-24T15:52:43.995Z,1.60
2018-06-24T15:55:12.215Z,1.93
2018-06-24T15:57:40.347Z,1.50
2018-06-24T16:00:09.228Z,1.70
2018-06-24T16:02:38.335Z,1.47
2018-06-24T16:05:11.644Z,2.67
2018-06-24T16:07:39.746Z,1.43
2018-06-24T16:10:07.850Z,1.60
2018-06-24T16:12:35.980Z,2.07
2018-06-24T16:15:04.847Z,1.77
2018-06-24T16:17:33.205Z,2.30
2018-06-24T16:20:01.659Z,2.07
2018-06-24T16:22:29.760Z,1.90
2018-06-24T16:24:58.949Z,3.17
2018-06-24T16:27:27.082Z,2.40
2018-06-24T16:29:55.215Z,2.17
2018-06-24T16:32:23.884Z,2.50
2018-06-24T16:34:52.069Z,1.87
2018-06-24T16:37:20.169Z,2.70
2018-06-24T16:39:49.065Z,2.30
2018-06-24T16:42:17.236Z,2.10
2018-06-24T16:44:45.356Z,2.40
2018-06-24T16:47:13.551Z,2.30
2018-06-24T16:49:42.395Z,1.60
2018-06-24T16:52:11.253Z,2.03
2018-06-24T16:54:42.226Z,1.90
2018-06-24T16:57:10.369Z,2.43
2018-06-24T16:59:39.259Z,3.20
2018-06-24T17:02:08.202Z,2.97
2018-06-24T17:04:36.335Z,2.80
2018-06-24T17:07:05.447Z,2.43
2018-06-24T17:09:34.586Z,2.23
2018-06-24T17:12:03.841Z,2.77
2018-06-24T17:14:33.276Z,2.50
2018-06-24T17:17:01.413Z,3.17
2018-06-24T17:19:29.848Z,2.87
2018-06-24T17:21:57.672Z,2.87
2018-06-24T17:24:26.864Z,3.00
2018-06-24T17:26:54.995Z,2.63
2018-06-24T17:29:26.388Z,2.80
2018-06-24T17:31:55.373Z,2.77
2018-06-24T17:34:23.609Z,2.87
2018-06-24T17:36:52.990Z,3.33
2018-06-24T17:39:21.136Z,2.60
2018-06-24T17:41:49.378Z,2.90
2018-06-24T17:44:20.225Z,3.07
2018-06-24T17:46:48.855Z,2.93
2018-06-24T17:49:17.875Z,3.73
2018-06-24T17:51:47.224Z,3.03
2018-06-24T17:54:16.199Z,2.93
2018-06-24T17:56:44.364Z,3.00
2018-06-24T17:59:14.692Z,3.40
2018-06-24T18:01:43.909Z,3.30
2018-06-24T18:04:12.149Z,3.20
2018-06-24T18:06:40.387Z,2.53
2018-06-24T18:09:08.510Z,3.47
2018-06-24T18:11:37.392Z,2.80
2018-06-24T18:14:06.387Z,4.20
2018-06-24T18:16:35.532Z,3.20
2018-06-24T18:19:05.282Z,3.70
2018-06-24T18:21:33.625Z,3.17
2018-06-24T18:24:01.854Z,3.40
2018-06-24T18:26:30.667Z,3.50
2018-06-24T18:28:58.816Z,4.30
2018-06-24T18:31:27.243Z,3.60
2018-06-24T18:33:55.389Z,3.40
2018-06-24T18:36:24.510Z,3.97
2018-06-24T18:38:53.541Z,3.28
2018-06-24T18:41:23.804Z,4.00
2018-06-24T18:43:53.122Z,3.25
2018-06-24T18:46:21.241Z,3.12
2018-06-24T18:48:49.368Z,3.12
2018-06-24T18:51:18.379Z,3.83
2018-06-24T18:53:46.494Z,3.83
2018-06-24T18:56:15.399Z,3.75
2018-06-24T18:58:45.020Z,4.30
2018-06-24T19:01:13.433Z,4.22
2018-06-24T19:03:41.647Z,3.53
2018-06-24T19:06:11.532Z,3.53
2018-06-24T19:08:39.667Z,4.30
2018-06-24T19:11:08.149Z,3.90
2018-06-24T19:13:38.098Z,3.60
2018-06-24T19:16:06.248Z,3.65
2018-06-24T19:18:34.424Z,4.50
2018-06-24T19:21:05.557Z,4.05
2018-06-24T19:23:35.551Z,5.05
2018-06-24T19:26:06.216Z,3.67
2018-06-24T19:28:34.420Z,4.85
2018-06-24T19:31:03.183Z,4.43
2018-06-24T19:33:46.112Z,4.45
2018-06-24T19:36:14.214Z,4.65
2018-06-24T19:38:47.871Z,4.00
2018-06-24T19:41:16.025Z,4.47
2018-06-24T19:43:44.961Z,4.43
2018-06-24T19:46:13.100Z,4.80
2018-06-24T19:48:42.015Z,4.87
2018-06-24T19:51:10.148Z,4.57
2018-06-24T19:53:39.986Z,4.05
2018-06-24T19:56:08.813Z,4.30
2018-06-24T19:58:36.948Z,4.30
2018-06-24T20:01:05.094Z,4.95
2018-06-24T20:03:33.263Z,4.47
2018-06-24T20:06:01.850Z,5.12
2018-06-24T20:08:30.767Z,4.72
2018-06-24T20:10:59.619Z,4.95
2018-06-24T20:13:28.648Z,4.43
2018-06-24T20:15:56.767Z,4.47
2018-06-24T20:18:24.863Z,4.80
2018-06-24T20:20:53.840Z,5.28
2018-06-24T20:23:21.944Z,4.97
2018-06-24T20:25:51.205Z,4.00
2018-06-24T20:28:19.375Z,5.12
2018-06-24T20:30:47.500Z,4.25
2018-06-24T20:33:16.359Z,4.72
2018-06-24T20:35:44.506Z,4.60
2018-06-24T20:38:13.439Z,4.65
2018-06-24T20:40:42.316Z,5.30
2018-06-24T20:43:10.446Z,5.28
2018-06-24T20:45:38.619Z,5.22
2018-06-24T20:48:06.755Z,4.70
2018-06-24T20:50:35.975Z,4.78
2018-06-24T20:53:04.098Z,4.55
2018-06-24T20:55:32.267Z,4.78
2018-06-24T20:58:00.431Z,3.60
2018-06-24T21:00:31.021Z,4.65
2018-06-24T21:03:13.819Z,4.50
2018-06-24T21:05:48.770Z,3.72
2018-06-24T21:08:17.409Z,5.28
2018-06-24T21:10:47.058Z,4.30
2018-06-24T21:13:15.934Z,5.20
2018-06-24T21:15:47.513Z,5.03
2018-06-24T21:18:15.621Z,5.30
2018-06-24T21:20:43.750Z,5.03
2018-06-24T21:23:11.926Z,4.35
2018-06-24T21:25:40.669Z,4.12
2018-06-24T21:28:08.760Z,5.65
2018-06-24T21:30:38.251Z,5.55
2018-06-24T21:33:06.344Z,5.85
2018-06-24T21:36:46.863Z,5.22
2018-06-24T21:39:14.980Z,5.47
2018-06-24T21:41:44.137Z,5.78
2018-06-24T21:44:12.239Z,5.80
2018-06-24T21:46:40.355Z,5.60
2018-06-24T21:49:08.463Z,5.95
2018-06-24T21:51:36.573Z,6.30
2018-06-24T21:54:05.545Z,6.75
2018-06-24T21:56:33.651Z,6.75
2018-06-24T21:59:01.793Z,7.93
2018-06-24T22:01:29.914Z,7.10
2018-06-24T22:03:58.018Z,6.25
2018-06-24T22:06:26.143Z,6.55
2018-06-24T22:08:55.046Z,6.65
2018-06-24T22:11:23.173Z,6.00
2018-06-24T22:13:52.304Z,6.95
2018-06-24T22:16:20.426Z,6.60
2018-06-24T22:18:48.539Z,7.90
2018-06-24T22:21:17.403Z,7.72
2018-06-24T22:23:45.527Z,7.75
2018-06-24T22:26:13.640Z,8.48
2018-06-24T22:28:41.779Z,7.47
2018-06-24T22:31:09.896Z,6.85
2018-06-24T22:33:37.993Z,7.43
2018-06-24T22:36:06.858Z,7.95
2018-06-24T22:38:36.200Z,7.80
2018-06-24T22:41:05.086Z,7.50
2018-06-24T22:43:33.306Z,7.00
2018-06-24T22:46:01.440Z,7.65
2018-06-24T22:48:29.547Z,7.28
2018-06-24T22:50:57.658Z,7.45
2018-06-24T22:53:25.768Z,8.40
2018-06-24T22:55:53.908Z,7.40
2018-06-24T22:58:22.000Z,6.05
2018-06-24T23:00:50.121Z,7.40
2018-06-24T23:03:18.238Z,7.18
2018-06-24T23:05:47.116Z,8.73
2018-06-24T23:08:16.003Z,7.03
2018-06-24T23:10:44.889Z,7.15
2018-06-24T23:13:12.974Z,6.70
2018-06-24T23:15:41.854Z,6.93
2018-06-24T23:18:09.973Z,8.32
2018-06-24T23:20:38.102Z,7.93
2018-06-24T23:23:06.210Z,6.00
2018-06-24T23:25:34.322Z,6.50
2018-06-24T23:28:02.434Z,6.47
2018-06-24T23:30:32.050Z,5.70
2018-06-24T23:33:00.164Z,5.50
2018-06-24T23:35:29.272Z,5.50
2018-06-24T23:37:57.395Z,5.25
2018-06-24T23:40:25.500Z,5.40
2018-06-24T23:42:53.633Z,5.97
2018-06-24T23:45:22.539Z,5.05
2018-06-24T23:47:50.655Z,5.20
2018-06-24T23:50:18.767Z,4.90
2018-06-24T23:52:47.645Z,6.10
2018-06-24T23:55:16.614Z,6.15
2018-06-24T23:57:44.738Z,6.25
